Time;durP1;ratioP1;P1;durP2;ratioP2;P2;SDS_P1;SDS_P2;PMS_P1;PMS_P2;Temp;Humidity;BMP_temperature;BMP_pressure;BME280_temperature;BME280_humidity;BME280_pressure;Samples;Min_cycle;Max_cycle;Signal;HPM_P1;HPM_P2
2023/05/10 00:01:27;;;;;;;2.10;1.80;;;;;;;16.41;69.07;96610.38;4887593;28;20150;-81
2023/05/10 00:03:52;;;;;;;2.33;2.13;;;;;;;16.40;68.88;96608.81;4912731;28;20223;-80
2023/05/10 00:06:18;;;;;;;2.83;2.33;;;;;;;16.21;69.68;96606.34;4890184;28;20377;-80
2023/05/10 00:08:45;;;;;;;2.08;1.95;;;;;;;16.28;69.65;96611.97;4874601;28;20210;-80
2023/05/10 00:11:10;;;;;;;3.20;2.13;;;;;;;16.33;69.83;96610.28;4905097;28;20725;-79
2023/05/10 00:13:35;;;;;;;2.67;2.25;;;;;;;16.28;69.76;96608.56;4904028;28;20218;-79
2023/05/10 00:16:01;;;;;;;2.55;2.35;;;;;;;16.27;69.76;96610.41;4890095;28;20308;-80
2023/05/10 00:18:26;;;;;;;2.60;2.40;;;;;;;16.27;69.80;96609.63;4902646;28;20271;-80
2023/05/10 00:20:52;;;;;;;4.28;2.60;;;;;;;16.28;70.18;96609.34;4890234;28;20482;-79
2023/05/10 00:23:17;;;;;;;2.55;2.30;;;;;;;16.33;70.05;96610.28;4871961;28;20104;-79
2023/05/10 00:25:42;;;;;;;3.92;2.95;;;;;;;16.29;70.13;96607.47;4894626;28;20633;-80
2023/05/10 00:28:08;;;;;;;3.30;3.00;;;;;;;16.38;69.55;96608.34;4889686;28;20216;-80
2023/05/10 00:30:33;;;;;;;3.92;3.15;;;;;;;16.34;69.80;96614.47;4893538;28;20246;-80
2023/05/10 00:32:59;;;;;;;3.85;3.55;;;;;;;16.24;69.99;96605.72;4874060;28;20218;-79
2023/05/10 00:35:24;;;;;;;4.10;3.45;;;;;;;16.27;69.82;96607.00;4903179;28;20673;-79
2023/05/10 00:37:49;;;;;;;3.80;3.50;;;;;;;16.29;69.70;96602.22;4903762;28;20207;-79
2023/05/10 00:40:15;;;;;;;4.10;3.45;;;;;;;16.28;69.40;96588.31;4919963;28;20299;-79
2023/05/10 00:42:40;;;;;;;4.72;3.58;;;;;;;16.36;69.35;96599.19;4887933;28;20222;-79
2023/05/10 00:45:07;;;;;;;5.00;4.13;;;;;;;16.25;70.16;96593.38;4870767;28;20595;-80
2023/05/10 00:47:32;;;;;;;5.05;4.30;;;;;;;16.14;70.18;96590.19;4899840;28;20207;-80
2023/05/10 00:50:00;;;;;;;5.13;4.65;;;;;;;16.30;69.86;96601.16;4890279;28;20287;-81
2023/05/10 00:52:26;;;;;;;5.30;4.80;;;;;;;16.32;70.05;96604.25;4906316;28;20301;-79
2023/05/10 00:54:52;;;;;;;6.35;4.75;;;;;;;16.33;69.78;96599.78;4882880;28;20228;-79
2023/05/10 00:57:17;;;;;;;5.53;4.97;;;;;;;16.36;70.16;96604.44;4906360;28;20206;-79
2023/05/10 00:59:43;;;;;;;5.32;4.65;;;;;;;16.36;69.77;96607.84;4905722;28;20281;-80
2023/05/10 01:02:09;;;;;;;5.53;4.57;;;;;;;16.23;69.89;96596.31;4925784;23;20114;-86
2023/05/10 01:04:35;;;;;;;4.80;4.05;;;;;;;16.30;69.74;96606.41;4944321;28;20025;-86
2023/05/10 01:07:01;;;;;;;4.68;4.28;;;;;;;16.33;69.90;96615.53;4931084;28;20596;-84
2023/05/10 01:09:26;;;;;;;5.30;4.20;;;;;;;16.32;69.89;96606.13;4917372;28;20265;-86
2023/05/10 01:11:53;;;;;;;5.45;4.20;;;;;;;16.22;69.68;96588.72;4932483;28;20253;-86
2023/05/10 01:14:19;;;;;;;4.47;4.05;;;;;;;16.22;69.43;96583.47;4937911;28;20206;-85
2023/05/10 01:16:45;;;;;;;5.20;4.55;;;;;;;16.25;69.87;96598.63;4934133;28;20253;-85
2023/05/10 01:19:22;;;;;;;5.38;4.88;;;;;;;16.15;70.01;96577.84;4923159;28;20202;-86
2023/05/10 01:21:50;;;;;;;6.90;5.15;;;;;;;16.38;69.61;96599.66;4928184;28;20196;-85
2023/05/10 01:24:34;;;;;;;6.30;5.10;;;;;;;16.38;69.86;96610.19;4941404;28;20195;-85
2023/05/10 01:27:06;;;;;;;5.65;4.88;;;;;;;16.42;69.38;96611.16;4945135;28;20312;-86
2023/05/10 01:29:59;;;;;;;5.65;4.97;;;;;;;16.41;69.64;96612.22;4948728;28;20096;-86
2023/05/10 01:32:29;;;;;;;5.90;5.03;;;;;;;16.37;69.17;96606.00;4930194;28;20249;-85
2023/05/10 01:35:17;;;;;;;5.13;4.47;;;;;;;16.45;69.24;96615.81;4945480;28;20234;-86
2023/05/10 01:37:48;;;;;;;4.60;4.20;;;;;;;16.38;69.17;96623.31;4954500;28;20025;-85
2023/05/10 01:40:18;;;;;;;5.28;4.78;;;;;;;16.29;69.72;96618.75;4952591;28;20250;-85
2023/05/10 01:42:50;;;;;;;3.97;3.58;;;;;;;16.27;69.18;96607.75;4948245;28;20037;-85
2023/05/10 01:45:35;;;;;;;4.05;3.65;;;;;;;16.19;69.36;96620.81;4918085;28;20237;-84
2023/05/10 01:48:06;;;;;;;4.60;4.15;;;;;;;16.25;69.01;96620.44;4955696;28;20165;-85
2023/05/10 01:50:34;;;;;;;5.10;3.88;;;;;;;16.15;68.76;96622.50;4914110;28;20223;-85
2023/05/10 01:53:01;;;;;;;4.07;3.38;;;;;;;16.18;68.42;96621.91;4942187;28;20037;-84
2023/05/10 01:55:32;;;;;;;3.88;3.58;;;;;;;16.15;68.78;96622.50;4932061;28;20072;-85
2023/05/10 01:58:06;;;;;;;3.78;3.47;;;;;;;16.13;68.97;96628.03;4924745;28;20181;-86
2023/05/10 02:00:33;;;;;;;5.13;3.08;;;;;;;16.00;68.89;96626.97;4967530;28;20276;-85
2023/05/10 02:03:00;;;;;;;5.22;3.80;;;;;;;16.00;69.01;96624.31;4916064;28;20488;-84
2023/05/10 02:05:27;;;;;;;3.63;3.28;;;;;;;16.11;68.37;96630.19;4926335;28;20266;-86
2023/05/10 02:07:53;;;;;;;3.70;3.38;;;;;;;16.03;68.86;96636.13;4945286;28;20010;-86
2023/05/10 02:10:19;;;;;;;5.55;3.22;;;;;;;15.86;69.26;96628.81;4946239;28;20333;-84
2023/05/10 02:12:47;;;;;;;4.30;3.22;;;;;;;15.99;69.06;96625.41;4927041;28;20171;-86
2023/05/10 02:15:17;;;;;;;4.57;3.28;;;;;;;15.91;69.48;96626.88;5006496;22;20081;-85
2023/05/10 02:17:43;;;;;;;3.53;3.22;;;;;;;15.98;68.98;96631.72;4937602;28;20206;-85
2023/05/10 02:20:09;;;;;;;4.40;3.53;;;;;;;16.12;68.02;96642.22;4939106;28;20218;-84
2023/05/10 02:22:35;;;;;;;4.28;3.88;;;;;;;15.95;68.50;96626.28;4918756;28;20190;-86
2023/05/10 02:25:02;;;;;;;6.07;3.83;;;;;;;16.04;68.25;96640.28;4923882;28;20231;-83
2023/05/10 02:27:29;;;;;;;4.25;3.85;;;;;;;16.01;68.92;96635.63;4902788;28;20293;-85
2023/05/10 02:29:55;;;;;;;4.10;3.58;;;;;;;16.07;68.51;96645.75;4914935;28;20268;-83
2023/05/10 02:32:21;;;;;;;4.60;4.18;;;;;;;16.03;68.78;96646.63;4929386;28;20388;-84
2023/05/10 02:34:51;;;;;;;3.95;3.60;;;;;;;16.09;68.70;96651.47;4903036;28;20107;-83
2023/05/10 02:37:19;;;;;;;5.13;3.92;;;;;;;16.14;68.60;96644.56;4906508;28;20132;-86
2023/05/10 02:39:49;;;;;;;3.90;3.50;;;;;;;16.17;68.50;96657.13;4921401;28;20411;-84
2023/05/10 02:42:19;;;;;;;4.60;4.18;;;;;;;16.10;69.15;96649.63;4933737;28;20251;-85
2023/05/10 02:44:50;;;;;;;4.15;3.67;;;;;;;16.16;68.98;96653.72;4901983;28;20263;-85
2023/05/10 02:47:17;;;;;;;3.83;3.50;;;;;;;16.12;69.01;96655.34;4919411;28;20235;-85
2023/05/10 02:49:43;;;;;;;5.80;4.03;;;;;;;16.03;69.21;96641.38;4918671;28;20277;-84
2023/05/10 02:52:09;;;;;;;3.92;3.53;;;;;;;16.07;69.18;96652.81;4926412;28;20309;-84
2023/05/10 02:54:41;;;;;;;4.38;3.97;;;;;;;16.07;68.88;96631.81;4924116;28;20186;-85
2023/05/10 02:57:07;;;;;;;5.75;4.68;;;;;;;16.09;69.03;96654.09;4906197;28;20264;-84
2023/05/10 02:59:33;;;;;;;4.80;4.28;;;;;;;15.94;68.71;96614.22;4920618;28;20224;-83
2023/05/10 03:02:00;;;;;;;5.78;4.70;;;;;;;16.14;68.77;96639.31;4937145;28;20105;-85
2023/05/10 03:04:25;;;;;;;5.53;4.90;;;;;;;16.14;68.78;96649.81;4887731;28;20242;-85
2023/05/10 03:06:51;;;;;;;5.70;4.60;;;;;;;16.13;69.35;96648.28;4888140;28;20215;-85
2023/05/10 03:09:17;;;;;;;5.30;4.70;;;;;;;16.02;68.99;96648.47;4902142;28;20218;-83
2023/05/10 03:12:06;;;;;;;5.78;5.13;;;;;;;16.23;68.94;96667.22;4908540;28;20361;-84
2023/05/10 03:14:59;;;;;;;7.10;5.80;;;;;;;16.31;68.89;96670.22;4879766;28;20307;-86
2023/05/10 03:18:04;;;;;;;5.38;4.63;;;;;;;16.28;68.98;96671.63;4920940;28;20177;-86
2023/05/10 03:20:34;;;;;;;5.75;5.15;;;;;;;16.21;69.23;96673.84;4926140;28;20263;-85
2023/05/10 03:23:49;;;;;;;5.00;4.50;;;;;;;16.25;69.23;96678.22;4916700;28;20054;-85
2023/05/10 03:26:20;;;;;;;6.35;5.47;;;;;;;16.19;69.01;96665.47;4888246;28;20439;-84
2023/05/10 03:28:48;;;;;;;6.32;4.95;;;;;;;16.20;68.94;96662.56;4882926;28;20190;-84
2023/05/10 03:31:13;;;;;;;6.65;5.30;;;;;;;16.14;68.38;96657.69;4888937;28;20195;-83
2023/05/10 03:33:49;;;;;;;6.85;5.35;;;;;;;16.25;68.58;96662.44;4902973;28;20233;-84
2023/05/10 03:36:14;;;;;;;6.22;5.40;;;;;;;16.16;68.75;96660.78;4905087;28;20289;-83
2023/05/10 03:38:40;;;;;;;8.13;5.30;;;;;;;16.16;68.64;96658.16;4900772;28;20164;-83
2023/05/10 03:41:05;;;;;;;6.07;5.45;;;;;;;16.15;68.76;96660.03;4919619;28;20190;-83
2023/05/10 03:43:31;;;;;;;6.30;5.57;;;;;;;16.06;68.33;96646.81;4904879;28;20203;-83
2023/05/10 03:45:56;;;;;;;7.55;5.72;;;;;;;16.08;69.17;96667.53;4904578;28;20173;-84
2023/05/10 03:48:22;;;;;;;7.97;5.30;;;;;;;16.19;68.88;96673.34;4909229;28;20029;-84
2023/05/10 03:50:49;;;;;;;6.25;5.65;;;;;;;16.09;69.10;96650.69;4917515;28;20142;-85
2023/05/10 03:53:14;;;;;;;5.20;4.70;;;;;;;16.18;68.70;96658.69;4936333;28;20349;-84
2023/05/10 03:55:40;;;;;;;6.00;5.40;;;;;;;16.26;69.26;96671.09;4913196;28;20604;-85
2023/05/10 03:58:06;;;;;;;8.55;5.63;;;;;;;16.08;69.08;96651.75;4921231;28;20026;-83
2023/05/10 04:00:32;;;;;;;7.65;5.35;;;;;;;16.22;68.78;96668.28;4916991;28;20172;-84
2023/05/10 04:02:57;;;;;;;7.60;6.03;;;;;;;16.13;68.41;96656.16;4921545;28;20336;-84
2023/05/10 04:05:23;;;;;;;7.13;5.40;;;;;;;16.20;68.66;96674.91;4900575;28;20133;-83
2023/05/10 04:07:49;;;;;;;8.00;6.07;;;;;;;16.04;68.92;96656.03;4916391;28;20098;-84
2023/05/10 04:10:16;;;;;;;8.48;5.97;;;;;;;16.01;69.25;96654.78;4930382;28;20021;-84
2023/05/10 04:15:14;;;;;;;6.47;5.35;;;;;;;16.16;68.89;96664.22;4952337;28;20044;-85
2023/05/10 04:17:40;;;;;;;5.65;5.05;;;;;;;16.14;68.77;96671.59;4917700;28;20284;-84
2023/05/10 04:20:06;;;;;;;6.13;4.80;;;;;;;16.19;68.82;96673.34;4902696;28;20175;-85
2023/05/10 04:22:32;;;;;;;5.43;4.85;;;;;;;16.19;68.89;96676.75;4909624;28;20280;-85
2023/05/10 04:24:57;;;;;;;5.35;4.85;;;;;;;16.13;68.60;96667.44;4904958;28;20288;-83
2023/05/10 04:27:23;;;;;;;7.47;5.93;;;;;;;16.00;68.95;96661.09;4906473;28;20194;-82
2023/05/10 04:29:48;;;;;;;5.15;4.60;;;;;;;16.06;68.96;96669.66;4932281;28;20185;-85
2023/05/10 04:32:16;;;;;;;7.28;5.38;;;;;;;16.23;68.83;96674.34;4893887;28;20358;-83
2023/05/10 04:34:41;;;;;;;6.45;5.10;;;;;;;16.12;68.40;96662.47;4913693;28;20232;-84
2023/05/10 04:37:07;;;;;;;5.53;4.63;;;;;;;16.20;68.43;96670.44;4928258;28;20439;-85
2023/05/10 04:39:33;;;;;;;6.30;4.75;;;;;;;16.27;68.60;96678.69;4896211;28;20382;-84
2023/05/10 04:41:58;;;;;;;4.97;3.88;;;;;;;16.26;68.54;96679.78;4914792;28;20034;-85
2023/05/10 04:44:24;;;;;;;4.85;4.28;;;;;;;16.32;68.50;96687.56;4926937;28;20175;-85
2023/05/10 04:46:49;;;;;;;5.03;4.53;;;;;;;16.23;68.98;96685.63;4912080;28;20229;-84
2023/05/10 04:49:15;;;;;;;5.28;4.57;;;;;;;16.14;69.44;96674.22;4929963;28;20154;-83
2023/05/10 04:51:40;;;;;;;5.05;4.55;;;;;;;16.26;69.02;96695.53;4902003;28;20217;-83
2023/05/10 04:54:06;;;;;;;5.22;4.38;;;;;;;16.31;69.01;96694.66;4922109;28;20229;-83
2023/05/10 04:56:32;;;;;;;4.47;4.07;;;;;;;16.30;69.19;96695.72;4890100;28;20211;-83
2023/05/10 04:58:57;;;;;;;4.75;4.22;;;;;;;16.21;68.67;96685.13;4900745;28;20030;-85
2023/05/10 05:01:23;;;;;;;5.93;4.22;;;;;;;16.19;68.55;96676.75;4919054;28;20113;-86
2023/05/10 05:03:48;;;;;;;5.70;4.82;;;;;;;16.36;68.43;96699.03;4921597;28;20104;-83
2023/05/10 05:06:14;;;;;;;5.07;4.45;;;;;;;16.29;68.46;96708.06;4915294;28;20202;-85
2023/05/10 05:08:39;;;;;;;5.53;4.40;;;;;;;16.32;68.28;96705.97;4886810;28;20186;-83
2023/05/10 05:11:05;;;;;;;5.65;4.47;;;;;;;16.30;68.63;96722.00;4913339;28;20332;-84
2023/05/10 05:13:30;;;;;;;5.03;4.20;;;;;;;16.15;68.81;96704.69;4915145;28;20078;-85
2023/05/10 05:15:56;;;;;;;5.10;4.60;;;;;;;16.24;68.97;96715.28;4920279;28;20155;-84
2023/05/10 05:18:21;;;;;;;4.53;4.13;;;;;;;16.23;68.76;96714.50;4919281;28;20086;-84
2023/05/10 05:20:47;;;;;;;5.78;4.57;;;;;;;16.20;69.01;96711.69;4922982;28;20180;-83
2023/05/10 05:23:12;;;;;;;5.22;4.75;;;;;;;16.24;68.34;96710.78;4923923;28;20196;-83
2023/05/10 05:25:38;;;;;;;5.10;3.92;;;;;;;16.32;68.82;96735.63;4918541;28;20402;-83
2023/05/10 05:28:04;;;;;;;6.75;4.85;;;;;;;16.36;68.43;96726.06;4920134;28;20233;-84
2023/05/10 05:30:29;;;;;;;5.40;4.90;;;;;;;16.43;68.08;96734.38;4909997;28;20160;-83
2023/05/10 05:32:55;;;;;;;6.38;4.30;;;;;;;16.41;67.59;96735.72;4896741;28;20343;-82
2023/05/10 05:35:20;;;;;;;4.10;3.78;;;;;;;16.52;67.00;96731.84;4901585;28;20270;-82
2023/05/10 05:37:46;;;;;;;4.55;4.15;;;;;;;16.45;66.31;96723.53;4893266;28;20299;-82
2023/05/10 05:40:14;;;;;;;3.83;3.50;;;;;;;16.54;66.88;96726.28;4905375;28;20169;-82
2023/05/10 05:42:40;;;;;;;4.95;4.00;;;;;;;16.41;67.06;96727.84;4895258;28;20231;-82
2023/05/10 05:45:06;;;;;;;3.97;3.67;;;;;;;16.42;67.02;96740.69;4883071;28;20236;-82
2023/05/10 05:47:31;;;;;;;4.57;3.67;;;;;;;16.50;66.49;96747.09;4885700;28;20344;-82
2023/05/10 05:49:57;;;;;;;3.90;3.60;;;;;;;16.45;66.97;96739.31;4915495;28;20199;-84
2023/05/10 05:52:23;;;;;;;6.68;3.67;;;;;;;16.47;65.85;96737.97;4896870;28;20248;-84
2023/05/10 05:54:48;;;;;;;2.85;2.53;;;;;;;16.45;65.81;96749.81;4923264;28;20478;-81
2023/05/10 05:57:14;;;;;;;3.25;2.95;;;;;;;16.45;66.32;96749.81;4898052;28;20026;-82
2023/05/10 05:59:43;;;;;;;3.22;2.92;;;;;;;16.36;67.68;96743.69;4889169;28;20520;-82
2023/05/10 06:02:09;;;;;;;3.30;3.05;;;;;;;16.38;67.85;96728.41;4921988;28;20050;-82
2023/05/10 06:04:35;;;;;;;2.72;2.50;;;;;;;16.54;67.28;96731.53;4909502;28;20376;-82
2023/05/10 06:07:00;;;;;;;2.97;2.65;;;;;;;16.62;67.40;96747.41;4874066;28;20101;-82
2023/05/10 06:09:26;;;;;;;2.40;2.20;;;;;;;16.65;67.17;96727.63;4883062;28;20108;-83
2023/05/10 06:11:51;;;;;;;3.30;2.97;;;;;;;16.84;67.64;96748.56;4922347;28;20104;-82
2023/05/10 06:14:17;;;;;;;3.08;2.75;;;;;;;17.13;66.48;96747.41;4909299;28;20175;-82
2023/05/10 06:16:42;;;;;;;3.80;2.95;;;;;;;17.17;65.98;96729.94;4899170;28;20034;-82
2023/05/10 06:19:10;;;;;;;3.28;2.72;;;;;;;17.25;66.38;96739.00;4888208;28;20164;-84
2023/05/10 06:21:36;;;;;;;4.13;3.13;;;;;;;17.52;65.67;96748.66;4909528;28;20697;-82
2023/05/10 06:24:02;;;;;;;2.85;2.53;;;;;;;17.67;65.64;96758.03;4889698;28;20265;-83
2023/05/10 06:26:28;;;;;;;4.07;2.40;;;;;;;17.83;65.88;96768.97;4879006;28;20170;-82
2023/05/10 06:28:53;;;;;;;4.70;2.90;;;;;;;17.79;65.39;96759.03;4899200;28;20328;-84
2023/05/10 06:31:19;;;;;;;2.95;2.45;;;;;;;17.83;65.10;96755.81;4912138;28;20390;-82
2023/05/10 06:33:44;;;;;;;2.67;2.47;;;;;;;17.56;64.77;96752.22;4913955;28;20434;-82
2023/05/10 06:36:10;;;;;;;2.97;2.60;;;;;;;17.37;64.42;96749.78;4906879;28;20211;-85
2023/05/10 06:38:35;;;;;;;5.05;2.60;;;;;;;17.39;66.09;96766.84;4897840;28;20186;-87
2023/05/10 06:41:00;;;;;;;3.40;3.08;;;;;;;17.37;65.64;96768.97;4896370;28;20183;-84
2023/05/10 06:43:28;;;;;;;2.80;2.53;;;;;;;17.32;65.52;96757.78;4893056;28;20108;-82
2023/05/10 06:45:53;;;;;;;3.45;2.65;;;;;;;17.38;64.94;96761.88;4925391;28;20293;-83
2023/05/10 06:48:19;;;;;;;4.25;3.13;;;;;;;17.33;66.19;96754.84;4915409;28;20282;-82
2023/05/10 06:50:44;;;;;;;3.20;2.90;;;;;;;17.66;66.75;96770.41;4909930;28;20298;-81
2023/05/10 06:53:11;;;;;;;4.43;2.92;;;;;;;17.87;65.40;96772.59;4902088;28;20167;-82
2023/05/10 06:55:37;;;;;;;2.78;2.58;;;;;;;17.87;64.60;96769.94;4887610;28;20432;-86
2023/05/10 06:58:02;;;;;;;2.63;2.30;;;;;;;17.81;64.39;96771.13;4889690;28;20543;-82
2023/05/10 07:00:28;;;;;;;2.47;2.05;;;;;;;17.79;63.94;96781.97;4888921;28;20279;-82
2023/05/10 07:02:54;;;;;;;3.33;2.53;;;;;;;17.54;65.23;96786.75;4880486;28;20486;-83
2023/05/10 07:05:20;;;;;;;2.40;2.20;;;;;;;17.42;64.41;96766.22;4902476;28;20378;-84
2023/05/10 07:07:45;;;;;;;2.97;2.35;;;;;;;17.45;65.05;96780.66;4904473;28;20104;-83
2023/05/10 07:10:11;;;;;;;3.10;2.80;;;;;;;17.32;65.18;96776.19;4902998;28;20244;-82
2023/05/10 07:12:37;;;;;;;3.28;2.95;;;;;;;17.26;65.06;96786.06;4884962;28;20311;-82
2023/05/10 07:15:04;;;;;;;2.47;2.28;;;;;;;17.28;65.52;96786.53;4877735;28;20676;-82
2023/05/10 07:17:29;;;;;;;2.92;2.65;;;;;;;17.35;65.48;96792.16;4871119;28;20345;-81
2023/05/10 07:19:55;;;;;;;4.43;2.70;;;;;;;17.22;65.55;96767.47;4882600;28;20287;-83
2023/05/10 07:22:20;;;;;;;3.88;2.70;;;;;;;17.45;64.59;96793.81;4911484;28;20255;-81
2023/05/10 07:24:46;;;;;;;2.80;2.38;;;;;;;17.39;65.21;96779.19;4899168;28;20514;-84
2023/05/10 07:27:12;;;;;;;2.28;2.17;;;;;;;17.53;65.08;96795.72;4886002;28;20294;-82
2023/05/10 07:29:38;;;;;;;3.95;2.60;;;;;;;17.56;65.52;96802.25;4916966;28;20392;-82
2023/05/10 07:32:05;;;;;;;2.35;2.15;;;;;;;17.58;62.09;96802.72;4899665;28;20303;-83
2023/05/10 07:34:31;;;;;;;2.55;2.35;;;;;;;17.51;63.96;96797.88;4898108;28;20180;-81
2023/05/10 07:37:00;;;;;;;2.80;2.50;;;;;;;17.65;63.02;96789.94;4894024;28;20442;-81
2023/05/10 07:39:27;;;;;;;2.60;2.40;;;;;;;17.58;62.68;96781.66;4874173;28;20354;-83
2023/05/10 07:41:52;;;;;;;2.60;2.40;;;;;;;17.69;63.53;96800.66;4870641;28;20256;-81
2023/05/10 07:44:20;;;;;;;2.03;1.77;;;;;;;17.66;63.06;96778.31;4873249;28;20427;-83
2023/05/10 07:46:45;;;;;;;3.28;2.10;;;;;;;17.89;62.86;96791.50;4858883;28;20199;-81
2023/05/10 07:49:11;;;;;;;2.42;1.92;;;;;;;17.77;64.71;96794.66;4871423;28;20426;-81
2023/05/10 07:51:36;;;;;;;2.13;1.92;;;;;;;17.73;64.65;96802.34;4881026;28;20457;-82
2023/05/10 07:54:02;;;;;;;2.20;2.00;;;;;;;17.71;64.08;96798.50;4878159;28;20252;-83
2023/05/10 07:56:32;;;;;;;3.30;2.50;;;;;;;17.67;63.59;96803.56;4876918;28;20207;-82
2023/05/10 07:58:59;;;;;;;1.92;1.83;;;;;;;17.62;62.03;96803.69;4860511;28;20231;-83
2023/05/10 08:01:25;;;;;;;2.53;1.95;;;;;;;17.50;62.74;96792.91;4894465;28;20338;-81
2023/05/10 08:03:53;;;;;;;4.00;1.92;;;;;;;17.38;62.41;96798.72;4855804;28;20191;-81
2023/05/10 08:06:21;;;;;;;4.03;2.45;;;;;;;17.23;62.60;96791.91;4886782;28;20266;-81
2023/05/10 08:08:50;;;;;;;2.03;1.80;;;;;;;17.21;62.30;96817.75;4876960;28;20285;-83
2023/05/10 08:11:20;;;;;;;2.22;1.48;;;;;;;17.24;62.60;96819.81;4867625;28;20318;-83
2023/05/10 08:13:46;;;;;;;2.45;1.70;;;;;;;17.16;64.27;96817.88;4891116;28;20500;-82
2023/05/10 08:16:12;;;;;;;2.78;1.88;;;;;;;17.02;64.34;96810.75;4878161;28;20226;-80
2023/05/10 08:18:38;;;;;;;1.73;1.40;;;;;;;17.09;63.38;96805.09;4878336;28;20385;-85
2023/05/10 08:21:04;;;;;;;1.40;1.30;;;;;;;16.97;62.03;96796.94;4889351;28;20492;-84
2023/05/10 08:23:30;;;;;;;2.00;1.38;;;;;;;16.99;62.15;96823.72;4868436;28;20522;-82
2023/05/10 08:25:55;;;;;;;1.88;1.10;;;;;;;17.08;60.29;96821.19;4876588;28;20502;-87
2023/05/10 08:28:21;;;;;;;2.60;1.58;;;;;;;16.89;63.80;96829.97;4886096;28;20477;-85
2023/05/10 08:30:46;;;;;;;1.15;1.10;;;;;;;16.92;62.05;96842.53;4896009;28;20286;-83
2023/05/10 08:33:11;;;;;;;4.25;1.25;;;;;;;16.89;61.18;96826.56;4894368;28;20214;-84
2023/05/10 08:35:37;;;;;;;4.90;1.70;;;;;;;16.95;61.73;96831.44;4868319;28;20195;-84
2023/05/10 08:38:03;;;;;;;0.82;0.80;;;;;;;17.03;60.25;96841.25;4887060;28;20290;-85
2023/05/10 08:40:28;;;;;;;1.55;1.35;;;;;;;16.94;62.38;96845.63;4892743;28;20183;-83
2023/05/10 08:43:04;;;;;;;2.47;1.35;;;;;;;17.12;60.88;96845.81;4866548;28;20200;-82
2023/05/10 08:45:32;;;;;;;1.40;1.00;;;;;;;16.96;62.63;96854.00;4864154;28;20279;-82
2023/05/10 08:48:00;;;;;;;2.30;1.10;;;;;;;16.88;62.56;96857.34;4887421;28;20180;-82
2023/05/10 08:50:26;;;;;;;1.33;1.20;;;;;;;16.73;62.49;96860.25;4902242;28;20193;-83
2023/05/10 08:52:53;;;;;;;2.05;1.02;;;;;;;16.77;62.61;96861.97;4885857;28;20363;-84
2023/05/10 08:55:18;;;;;;;1.60;1.13;;;;;;;16.71;63.28;96864.97;4860349;28;20267;-84
2023/05/10 08:57:44;;;;;;;2.75;1.20;;;;;;;16.73;62.68;96861.00;4879551;28;20364;-84
2023/05/10 09:00:10;;;;;;;1.05;0.95;;;;;;;16.85;61.18;96856.06;4881722;28;20359;-84
2023/05/10 09:02:36;;;;;;;2.92;1.05;;;;;;;16.87;61.49;96855.78;4878843;28;20353;-81
2023/05/10 09:05:04;;;;;;;1.05;1.00;;;;;;;16.99;62.17;96868.44;4895602;28;20374;-82
2023/05/10 09:07:30;;;;;;;0.73;0.73;;;;;;;16.99;62.32;96861.31;4896052;28;20473;-84
2023/05/10 09:09:55;;;;;;;1.98;0.95;;;;;;;17.16;62.99;96867.84;4895692;28;20358;-83
2023/05/10 09:12:21;;;;;;;1.35;0.82;;;;;;;17.20;58.44;96860.91;4873609;28;20402;-81
2023/05/10 09:14:46;;;;;;;1.88;0.90;;;;;;;17.13;59.14;96856.03;4895403;28;20420;-82
2023/05/10 09:17:12;;;;;;;1.45;0.82;;;;;;;17.25;57.59;96863.44;4865145;28;20199;-82
2023/05/10 09:19:37;;;;;;;1.90;0.93;;;;;;;17.49;58.47;96876.34;4874563;28;20428;-81
2023/05/10 09:22:03;;;;;;;0.93;0.80;;;;;;;17.83;57.82;96876.94;4882280;28;20200;-83
2023/05/10 09:24:30;;;;;;;2.63;1.10;;;;;;;17.96;57.50;96884.06;4896661;28;20100;-83
2023/05/10 09:26:57;;;;;;;1.58;0.93;;;;;;;18.10;57.46;96874.22;4879664;28;20211;-81
2023/05/10 09:29:23;;;;;;;0.80;0.80;;;;;;;17.95;55.53;96875.34;4873444;28;20213;-82
2023/05/10 09:31:54;;;;;;;2.00;1.80;;;;;;;17.80;56.99;96880.94;4866715;28;20237;-82
2023/05/10 09:34:28;;;;;;;2.28;1.20;;;;;;;17.35;58.92;96868.50;4896073;28;20408;-84
2023/05/10 09:36:54;;;;;;;2.75;1.33;;;;;;;17.32;58.95;96892.75;4870547;28;20434;-82
2023/05/10 09:39:20;;;;;;;2.08;1.10;;;;;;;17.18;60.86;96890.13;4894989;28;20319;-81
2023/05/10 09:41:46;;;;;;;2.22;1.20;;;;;;;17.03;61.50;96899.13;4883171;28;20300;-84
2023/05/10 09:44:17;;;;;;;1.98;1.27;;;;;;;16.87;61.89;96871.56;4880525;28;20293;-82
2023/05/10 09:46:43;;;;;;;2.03;1.33;;;;;;;16.91;62.55;96890.16;4878506;28;20196;-82
2023/05/10 09:49:08;;;;;;;1.45;1.35;;;;;;;16.78;62.58;96895.09;4896110;28;20378;-84
2023/05/10 09:51:34;;;;;;;1.58;1.38;;;;;;;16.89;63.61;96890.44;4907416;28;20181;-81
2023/05/10 09:54:14;;;;;;;1.35;1.08;;;;;;;16.90;62.34;96881.50;4895492;28;20424;-82
2023/05/10 09:56:40;;;;;;;1.63;1.20;;;;;;;16.93;63.73;96891.44;4862338;28;20466;-81
2023/05/10 09:59:07;;;;;;;1.52;1.15;;;;;;;17.16;62.91;96888.88;4893334;28;20453;-81
2023/05/10 10:01:34;;;;;;;2.28;1.20;;;;;;;17.39;62.61;96893.16;4889404;28;20342;-83
2023/05/10 10:04:03;;;;;;;1.52;1.13;;;;;;;17.71;60.86;96880.13;4884797;28;20380;-82
2023/05/10 10:06:29;;;;;;;2.53;1.13;;;;;;;18.10;61.63;96890.03;4886787;28;20427;-82
2023/05/10 10:08:55;;;;;;;2.13;1.40;;;;;;;18.39;61.36;96891.47;4878596;28;20449;-81
2023/05/10 10:11:23;;;;;;;1.45;1.35;;;;;;;18.74;59.33;96875.78;4878581;28;20266;-83
2023/05/10 10:13:49;;;;;;;3.60;1.38;;;;;;;18.82;55.64;96885.63;4887649;28;20464;-81
2023/05/10 10:16:14;;;;;;;2.88;1.83;;;;;;;18.47;56.89;96877.56;4874407;28;20585;-82
2023/05/10 10:18:40;;;;;;;3.45;1.48;;;;;;;18.24;59.72;96891.84;4861750;28;20540;-81
2023/05/10 10:21:08;;;;;;;1.20;1.10;;;;;;;18.12;57.95;96885.25;4879212;28;20421;-84
2023/05/10 10:23:35;;;;;;;2.22;1.17;;;;;;;18.10;55.82;96884.78;4901783;28;20326;-81
2023/05/10 10:26:02;;;;;;;2.03;1.30;;;;;;;18.19;56.39;96899.88;4894067;28;20457;-80
2023/05/10 10:28:48;;;;;;;1.77;1.30;;;;;;;18.59;56.12;96886.75;4871547;28;20164;-81
2023/05/10 10:31:53;;;;;;;3.05;1.58;;;;;;;18.97;53.76;96902.13;4908790;28;20370;-81
2023/05/10 10:34:21;;;;;;;2.65;1.45;;;;;;;19.34;57.10;96889.50;4875413;28;20184;-82
2023/05/10 10:36:47;;;;;;;3.85;1.77;;;;;;;19.27;54.38;96880.16;4902587;28;20202;-83
2023/05/10 10:39:13;;;;;;;3.90;1.70;;;;;;;19.70;51.83;96881.31;4895551;28;20383;-81
2023/05/10 10:41:49;;;;;;;2.60;2.10;;;;;;;19.67;57.56;96870.59;4898911;28;20352;-83
2023/05/10 10:44:40;;;;;;;3.33;1.70;;;;;;;19.90;51.61;96885.22;4895285;28;20196;-80
2023/05/10 10:47:11;;;;;;;1.38;1.10;;;;;;;19.45;52.47;96883.63;4910942;28;20395;-82
2023/05/10 10:49:41;;;;;;;2.08;1.20;;;;;;;19.57;49.70;96879.59;4905920;28;20361;-81
2023/05/10 10:52:39;;;;;;;2.65;1.05;;;;;;;19.58;50.96;96879.28;4883066;28;20299;-80
2023/05/10 10:55:12;;;;;;;1.70;1.20;;;;;;;19.54;52.21;96885.50;4854088;28;20238;-81
2023/05/10 10:57:44;;;;;;;2.55;1.17;;;;;;;19.83;53.31;96877.75;4858312;28;20284;-82
2023/05/10 11:00:27;;;;;;;3.42;1.08;;;;;;;20.17;49.78;96883.34;4890987;28;20337;-79
2023/05/10 11:03:06;;;;;;;2.45;1.10;;;;;;;20.11;50.63;96887.22;4856473;28;20180;-83
2023/05/10 11:05:38;;;;;;;2.03;0.80;;;;;;;20.06;49.88;96890.81;4875410;28;20333;-80
2023/05/10 11:08:30;;;;;;;2.10;1.02;;;;;;;19.89;49.64;96882.91;4875773;28;20112;-81
2023/05/10 11:10:58;;;;;;;1.40;1.10;;;;;;;19.54;50.21;96886.28;4860163;28;20156;-81
2023/05/10 11:13:29;;;;;;;1.17;0.82;;;;;;;19.35;51.30;96901.63;4893518;28;20546;-80
2023/05/10 11:15:56;;;;;;;2.67;1.20;;;;;;;19.31;52.44;96898.81;4910586;28;20097;-79
2023/05/10 11:18:30;;;;;;;1.23;0.80;;;;;;;19.07;49.73;96909.78;4877044;28;20436;-82
2023/05/10 11:20:59;;;;;;;1.52;0.70;;;;;;;18.82;51.44;96908.56;4874880;28;20077;-81
2023/05/10 11:23:33;;;;;;;2.13;0.93;;;;;;;18.63;52.77;96911.44;4900904;28;20205;-80
2023/05/10 11:26:00;;;;;;;1.50;0.63;;;;;;;19.01;48.69;96911.78;4884153;28;20331;-80
2023/05/10 11:28:27;;;;;;;2.50;0.70;;;;;;;19.14;50.14;96919.88;4861119;28;20205;-80
2023/05/10 11:30:53;;;;;;;0.82;0.63;;;;;;;19.04;49.44;96916.44;4892753;28;20350;-80
2023/05/10 11:33:20;;;;;;;1.08;0.80;;;;;;;19.00;48.55;96923.41;4894977;28;21090;-80
2023/05/10 11:35:46;;;;;;;0.73;0.68;;;;;;;18.96;48.90;96927.75;4876406;28;20401;-82
2023/05/10 11:38:13;;;;;;;0.73;0.63;;;;;;;19.10;49.28;96917.06;4880794;28;20210;-78
2023/05/10 11:40:40;;;;;;;1.40;0.70;;;;;;;19.24;47.48;96909.84;4891892;28;20242;-82